createdAt,value
2023-02-23T00:00:28.946Z,4.50
2023-02-23T00:03:30.431Z,3.35
2023-02-23T00:06:34.090Z,2.60
2023-02-23T00:09:35.940Z,3.65
2023-02-23T00:12:38.305Z,3.17
2023-02-23T00:15:40.382Z,2.90
2023-02-23T00:18:53.987Z,2.53
2023-02-23T00:21:58.739Z,3.17
2023-02-23T00:25:01.319Z,4.25
2023-02-23T00:28:03.159Z,2.40
2023-02-23T00:31:04.851Z,3.50
2023-02-23T00:34:07.371Z,2.55
2023-02-23T00:37:08.911Z,3.20
2023-02-23T00:40:16.388Z,2.17
2023-02-23T00:43:19.820Z,2.28
2023-02-23T00:46:26.952Z,3.67
2023-02-23T00:49:28.663Z,4.18
2023-02-23T00:52:30.404Z,2.35
2023-02-23T00:55:31.998Z,2.30
2023-02-23T00:58:33.591Z,2.50
2023-02-23T01:01:38.828Z,2.40
2023-02-23T01:04:40.390Z,2.33
2023-02-23T01:07:42.015Z,2.25
2023-02-23T01:10:44.846Z,3.08
2023-02-23T01:13:47.788Z,2.25
2023-02-23T01:16:49.407Z,2.58
2023-02-23T01:19:50.929Z,2.45
2023-02-23T01:22:52.515Z,2.13
2023-02-23T01:25:53.985Z,2.67
2023-02-23T01:28:58.379Z,2.35
2023-02-23T01:32:00.859Z,3.20
2023-02-23T01:35:12.587Z,3.53
2023-02-23T01:38:14.086Z,2.58
2023-02-23T01:41:16.855Z,2.60
2023-02-23T01:44:18.540Z,1.73
2023-02-23T01:47:20.357Z,3.13
2023-02-23T01:50:23.791Z,2.33
2023-02-23T01:53:27.882Z,2.33
2023-02-23T01:56:36.450Z,2.90
2023-02-23T01:59:42.651Z,2.60
2023-02-23T02:02:44.129Z,2.28
2023-02-23T02:05:48.341Z,2.05
2023-02-23T02:08:55.059Z,3.58
2023-02-23T02:11:56.575Z,2.90
2023-02-23T02:14:59.990Z,2.58
2023-02-23T02:18:33.399Z,2.80
2023-02-23T02:21:53.822Z,3.15
2023-02-23T02:24:55.482Z,2.40
2023-02-23T02:27:58.167Z,2.15
2023-02-23T02:31:26.765Z,2.35
2023-02-23T02:34:49.992Z,2.05
2023-02-23T02:38:04.446Z,2.22
2023-02-23T02:41:18.775Z,2.17
2023-02-23T02:44:29.289Z,2.78
2023-02-23T02:47:44.636Z,2.72
2023-02-23T02:50:58.068Z,2.45
2023-02-23T02:54:10.539Z,2.05
2023-02-23T02:57:13.733Z,2.25
2023-02-23T03:00:41.855Z,3.28
2023-02-23T03:04:04.749Z,2.60
2023-02-23T03:07:48.253Z,2.45
2023-02-23T03:11:29.063Z,3.75
2023-02-23T03:15:05.259Z,2.88
2023-02-23T03:18:47.717Z,3.05
2023-02-23T03:22:07.552Z,3.88
2023-02-23T03:25:33.727Z,2.25
2023-02-23T03:29:14.181Z,2.33
2023-02-23T03:33:02.933Z,3.25
2023-02-23T03:36:30.189Z,2.47
2023-02-23T03:39:56.398Z,2.30
2023-02-23T03:43:20.130Z,2.60
2023-02-23T03:46:43.840Z,4.38
2023-02-23T03:50:06.515Z,1.77
2023-02-23T03:53:30.392Z,3.83
2023-02-23T03:56:54.706Z,2.10
2023-02-23T04:00:21.206Z,2.45
2023-02-23T04:03:44.312Z,2.23
2023-02-23T04:07:05.978Z,2.63
2023-02-23T04:10:28.576Z,2.28
2023-02-23T04:13:33.404Z,2.10
2023-02-23T04:16:35.102Z,2.40
2023-02-23T04:19:36.669Z,1.77
2023-02-23T04:22:38.735Z,2.25
2023-02-23T04:25:40.332Z,2.42
2023-02-23T04:28:42.878Z,2.50
2023-02-23T04:31:44.525Z,2.10
2023-02-23T04:34:46.136Z,3.72
2023-02-23T04:37:47.672Z,1.88
2023-02-23T04:40:49.810Z,2.75
2023-02-23T04:43:51.324Z,3.58
2023-02-23T04:46:52.806Z,3.60
2023-02-23T04:49:54.308Z,2.65
2023-02-23T04:52:56.673Z,2.65
2023-02-23T04:55:58.358Z,2.22
2023-02-23T04:59:00.252Z,2.42
2023-02-23T05:02:02.349Z,2.10
2023-02-23T05:05:04.156Z,2.30
2023-02-23T05:08:06.167Z,2.40
2023-02-23T05:11:08.116Z,2.60
2023-02-23T05:14:10.242Z,2.40
2023-02-23T05:17:11.922Z,3.17
2023-02-23T05:20:14.399Z,2.55
2023-02-23T05:23:15.865Z,2.70
2023-02-23T05:26:17.418Z,2.60
2023-02-23T05:29:19.187Z,2.42
2023-02-23T05:32:20.667Z,3.10
2023-02-23T05:35:22.643Z,2.17
2023-02-23T05:38:25.062Z,2.10
2023-02-23T05:41:26.555Z,2.65
2023-02-23T05:44:28.231Z,3.00
2023-02-23T05:47:31.054Z,2.28
2023-02-23T05:50:34.306Z,2.30
2023-02-23T05:53:36.791Z,3.00
2023-02-23T05:56:38.346Z,2.38
2023-02-23T05:59:40.206Z,2.30
2023-02-23T06:02:42.005Z,2.72
2023-02-23T06:05:49.688Z,2.05
2023-02-23T06:08:52.737Z,2.88
2023-02-23T06:11:54.281Z,2.40
2023-02-23T06:14:56.775Z,2.42
2023-02-23T06:17:58.328Z,2.63
2023-02-23T06:21:01.345Z,3.10
2023-02-23T06:24:02.844Z,2.88
2023-02-23T06:27:05.277Z,3.28
2023-02-23T06:30:07.160Z,3.25
2023-02-23T06:33:08.656Z,2.95
2023-02-23T06:36:10.361Z,2.60
2023-02-23T06:39:12.267Z,2.88
2023-02-23T06:42:14.736Z,3.22
2023-02-23T06:45:16.752Z,4.00
2023-02-23T06:48:18.219Z,3.20
2023-02-23T06:51:19.970Z,5.13
2023-02-23T06:54:21.674Z,3.50
2023-02-23T06:57:23.135Z,2.58
2023-02-23T07:00:24.627Z,5.03
2023-02-23T07:03:26.360Z,4.72
2023-02-23T07:06:27.834Z,4.57
2023-02-23T07:09:30.739Z,6.32
2023-02-23T07:12:32.476Z,5.05
2023-02-23T07:15:36.434Z,4.10
2023-02-23T07:18:37.917Z,4.90
2023-02-23T07:21:39.401Z,4.13
2023-02-23T07:24:40.915Z,3.58
2023-02-23T07:27:42.534Z,3.95
2023-02-23T07:30:44.105Z,5.93
2023-02-23T07:33:45.615Z,5.68
2023-02-23T07:36:47.158Z,6.70
2023-02-23T07:39:48.676Z,5.65
2023-02-23T07:42:50.180Z,4.72
2023-02-23T07:45:51.847Z,6.05
2023-02-23T07:48:53.731Z,3.85
2023-02-23T07:51:55.191Z,3.63
2023-02-23T07:54:57.640Z,4.05
2023-02-23T07:57:59.166Z,4.32
2023-02-23T08:01:00.823Z,5.97
2023-02-23T08:04:02.368Z,3.92
2023-02-23T08:07:03.954Z,4.85
2023-02-23T08:10:05.948Z,4.22
2023-02-23T08:13:07.816Z,5.88
2023-02-23T08:16:09.544Z,4.80
2023-02-23T08:19:11.125Z,4.85
2023-02-23T08:22:12.655Z,5.60
2023-02-23T08:25:14.242Z,3.95
2023-02-23T08:28:15.876Z,7.22
2023-02-23T08:31:21.221Z,4.07
2023-02-23T08:34:23.497Z,9.47
2023-02-23T08:37:25.025Z,4.18
2023-02-23T08:40:26.667Z,6.22
2023-02-23T08:43:29.138Z,6.10
2023-02-23T08:46:31.016Z,5.53
2023-02-23T08:49:33.296Z,7.10
2023-02-23T08:52:34.795Z,5.47
2023-02-23T08:55:38.142Z,6.55
2023-02-23T08:58:39.699Z,4.70
2023-02-23T09:01:42.381Z,5.50
2023-02-23T09:04:43.983Z,4.18
2023-02-23T09:07:46.790Z,5.80
2023-02-23T09:10:48.286Z,13.95
2023-02-23T09:13:49.990Z,25.38
2023-02-23T09:16:51.450Z,26.35
2023-02-23T09:19:53.216Z,31.13
2023-02-23T09:22:55.089Z,26.73
2023-02-23T09:25:56.610Z,27.10
2023-02-23T09:29:00.490Z,29.92
2023-02-23T09:32:02.022Z,28.98
2023-02-23T09:35:03.700Z,27.00
2023-02-23T09:38:07.075Z,24.90
2023-02-23T09:41:25.553Z,25.08
2023-02-23T09:44:32.904Z,23.20
2023-02-23T09:47:59.822Z,22.75
2023-02-23T09:51:05.867Z,22.23
2023-02-23T09:54:12.774Z,22.90
2023-02-23T09:57:29.825Z,21.65
2023-02-23T10:00:39.491Z,19.10
2023-02-23T10:03:48.550Z,19.88
2023-02-23T10:07:03.553Z,17.35
2023-02-23T10:10:27.656Z,18.13
2023-02-23T10:13:51.450Z,17.70
2023-02-23T10:17:17.012Z,16.40
2023-02-23T10:20:28.078Z,17.45
2023-02-23T10:23:45.361Z,16.50
2023-02-23T10:26:54.156Z,15.48
2023-02-23T10:30:00.560Z,15.43
2023-02-23T10:33:16.930Z,14.82
2023-02-23T10:36:27.971Z,16.25
2023-02-23T10:39:31.403Z,15.63
2023-02-23T10:42:33.064Z,14.68
2023-02-23T10:45:41.346Z,14.40
2023-02-23T10:48:43.449Z,14.05
2023-02-23T10:51:45.470Z,14.52
2023-02-23T10:54:51.620Z,13.88
2023-02-23T10:58:08.463Z,12.40
2023-02-23T11:01:10.175Z,12.85
2023-02-23T11:04:20.804Z,12.32
2023-02-23T11:07:33.073Z,13.85
2023-02-23T11:10:34.637Z,11.98
2023-02-23T11:13:37.642Z,15.00
2023-02-23T11:16:39.678Z,11.07
2023-02-23T11:19:41.386Z,10.77
2023-02-23T11:22:43.180Z,11.75
2023-02-23T11:25:46.427Z,12.05
2023-02-23T11:28:53.433Z,11.70
2023-02-23T11:31:58.498Z,12.00
2023-02-23T11:35:18.914Z,12.05
2023-02-23T11:38:29.161Z,11.85
2023-02-23T11:41:32.828Z,11.45
2023-02-23T11:44:34.352Z,10.23
2023-02-23T11:47:40.298Z,11.80
2023-02-23T11:50:48.369Z,10.30
2023-02-23T11:53:49.952Z,11.07
2023-02-23T11:56:53.970Z,11.77
2023-02-23T11:59:58.478Z,11.57
2023-02-23T12:03:01.396Z,9.75
2023-02-23T12:06:03.094Z,10.65
2023-02-23T12:09:23.945Z,8.45
2023-02-23T12:12:30.969Z,10.90
2023-02-23T12:15:54.261Z,8.95
2023-02-23T12:19:22.880Z,10.77
2023-02-23T12:22:32.933Z,14.38
2023-02-23T12:25:49.496Z,12.68
2023-02-23T12:29:04.102Z,11.23
2023-02-23T12:32:17.819Z,16.27
2023-02-23T12:35:33.290Z,15.60
2023-02-23T12:38:48.636Z,12.50
2023-02-23T12:42:02.474Z,15.40
2023-02-23T12:45:06.821Z,14.43
2023-02-23T12:48:18.646Z,11.00
2023-02-23T12:51:29.838Z,12.70
2023-02-23T12:54:32.723Z,12.80
2023-02-23T12:57:51.304Z,11.02
2023-02-23T13:01:03.924Z,13.73
2023-02-23T13:04:34.064Z,12.02
2023-02-23T13:08:04.754Z,12.73
2023-02-23T13:11:27.594Z,13.82
2023-02-23T13:14:53.016Z,13.87
2023-02-23T13:18:23.575Z,13.70
2023-02-23T13:21:37.389Z,11.30
2023-02-23T13:24:44.864Z,12.88
2023-02-23T13:27:52.704Z,13.27
2023-02-23T13:30:54.923Z,11.43
2023-02-23T13:33:58.417Z,12.15
2023-02-23T13:37:03.478Z,14.98
2023-02-23T13:40:29.073Z,15.27
2023-02-23T13:43:39.316Z,13.20
2023-02-23T13:47:17.483Z,17.55
2023-02-23T13:50:30.866Z,12.05
2023-02-23T13:53:40.935Z,16.67
2023-02-23T13:56:46.851Z,12.25
2023-02-23T13:59:49.553Z,14.95
2023-02-23T14:02:51.351Z,12.73
2023-02-23T14:05:59.215Z,14.43
2023-02-23T14:09:09.548Z,14.95
2023-02-23T14:12:11.156Z,13.10
2023-02-23T14:15:28.222Z,13.68
2023-02-23T14:18:33.104Z,11.00
2023-02-23T14:21:49.826Z,12.07
2023-02-23T14:25:29.040Z,11.18
2023-02-23T14:28:34.271Z,12.82
2023-02-23T14:31:36.058Z,14.07
2023-02-23T14:34:59.930Z,12.70
2023-02-23T14:38:07.253Z,11.00
2023-02-23T14:41:11.941Z,9.93
2023-02-23T14:44:31.762Z,13.73
2023-02-23T14:47:44.591Z,10.65
2023-02-23T14:50:46.233Z,9.52
2023-02-23T14:53:47.799Z,10.02
2023-02-23T14:56:52.276Z,9.55
2023-02-23T14:59:58.386Z,11.15
2023-02-23T15:03:06.154Z,9.48
2023-02-23T15:06:09.728Z,11.70
2023-02-23T15:09:19.739Z,12.23
2023-02-23T15:12:27.051Z,11.15
2023-02-23T15:15:30.557Z,10.65
2023-02-23T15:18:37.391Z,11.27
2023-02-23T15:21:40.346Z,8.38
2023-02-23T15:24:47.107Z,8.13
2023-02-23T15:27:48.982Z,7.80
2023-02-23T15:30:51.727Z,7.97
2023-02-23T15:33:55.679Z,10.00
2023-02-23T15:37:03.368Z,9.45
2023-02-23T15:40:10.704Z,12.65
2023-02-23T15:43:12.337Z,10.25
2023-02-23T15:46:23.936Z,8.20
2023-02-23T15:49:34.054Z,8.18
2023-02-23T15:52:44.062Z,7.80
2023-02-23T15:55:47.945Z,9.90
2023-02-23T15:58:56.989Z,9.00
2023-02-23T16:02:02.757Z,8.32
2023-02-23T16:05:22.985Z,7.88
2023-02-23T16:08:25.790Z,10.30
2023-02-23T16:11:36.019Z,10.05
2023-02-23T16:14:49.833Z,10.30
2023-02-23T16:18:03.853Z,11.35
2023-02-23T16:21:06.721Z,11.65
2023-02-23T16:24:13.806Z,9.90
2023-02-23T16:27:15.959Z,7.20
2023-02-23T16:30:18.526Z,10.55
2023-02-23T16:33:25.891Z,8.45
2023-02-23T16:36:38.509Z,8.48
2023-02-23T16:39:40.032Z,7.32
2023-02-23T16:42:41.549Z,8.48
2023-02-23T16:45:43.399Z,9.13
2023-02-23T16:48:44.977Z,10.05
2023-02-23T16:51:46.521Z,7.18
2023-02-23T16:54:53.737Z,8.30
2023-02-23T16:58:00.990Z,9.27
2023-02-23T17:01:02.812Z,9.43
2023-02-23T17:04:04.377Z,8.30
2023-02-23T17:07:05.880Z,10.07
2023-02-23T17:10:08.678Z,10.27
2023-02-23T17:13:20.061Z,9.23
2023-02-23T17:16:21.770Z,8.43
2023-02-23T17:19:24.662Z,8.40
2023-02-23T17:22:28.957Z,9.68
2023-02-23T17:25:30.839Z,8.48
2023-02-23T17:28:32.432Z,6.90
2023-02-23T17:31:34.235Z,8.23
2023-02-23T17:34:36.016Z,7.95
2023-02-23T17:37:37.927Z,9.38
2023-02-23T17:40:39.471Z,6.72
2023-02-23T17:43:41.378Z,6.60
2023-02-23T17:46:42.919Z,6.43
2023-02-23T17:49:44.369Z,6.47
2023-02-23T17:52:46.887Z,6.63
2023-02-23T17:55:48.348Z,7.20
2023-02-23T17:58:50.416Z,6.10
2023-02-23T18:01:52.024Z,7.45
2023-02-23T18:04:53.584Z,5.85
2023-02-23T18:07:55.085Z,6.15
2023-02-23T18:10:57.600Z,6.20
2023-02-23T18:13:59.094Z,6.10
2023-02-23T18:17:00.940Z,8.70
2023-02-23T18:20:03.544Z,6.47
2023-02-23T18:23:04.997Z,6.90
2023-02-23T18:26:12.262Z,7.82
2023-02-23T18:29:13.771Z,5.93
2023-02-23T18:32:15.337Z,8.00
2023-02-23T18:35:17.019Z,7.10
2023-02-23T18:38:18.678Z,5.78
2023-02-23T18:41:20.344Z,6.55
2023-02-23T18:44:22.957Z,6.65
2023-02-23T18:47:24.589Z,6.15
2023-02-23T18:50:26.584Z,6.43
2023-02-23T18:53:28.089Z,7.43
2023-02-23T18:56:29.660Z,7.38
2023-02-23T18:59:32.268Z,5.90
2023-02-23T19:02:33.740Z,7.40
2023-02-23T19:05:37.464Z,5.82
2023-02-23T19:08:38.925Z,5.40
2023-02-23T19:11:42.524Z,4.88
2023-02-23T19:14:49.761Z,6.15
2023-02-23T19:17:51.523Z,5.50
2023-02-23T19:20:53.009Z,6.45
2023-02-23T19:23:57.650Z,6.32
2023-02-23T19:26:59.133Z,6.07
2023-02-23T19:30:00.661Z,5.30
2023-02-23T19:33:03.930Z,6.32
2023-02-23T19:36:07.384Z,6.45
2023-02-23T19:39:15.615Z,6.38
2023-02-23T19:42:19.276Z,5.70
2023-02-23T19:45:21.765Z,5.20
2023-02-23T19:48:25.264Z,5.90
2023-02-23T19:51:26.943Z,5.28
2023-02-23T19:54:33.811Z,5.15
2023-02-23T19:57:35.308Z,4.80
2023-02-23T20:00:36.864Z,4.90
2023-02-23T20:03:39.526Z,5.65
2023-02-23T20:06:47.129Z,4.40
2023-02-23T20:09:48.777Z,7.30
2023-02-23T20:12:50.232Z,4.65
2023-02-23T20:16:08.943Z,5.45
2023-02-23T20:19:11.491Z,5.40
2023-02-23T20:22:13.045Z,5.03
2023-02-23T20:25:15.617Z,4.68
2023-02-23T20:28:17.678Z,7.20
2023-02-23T20:31:26.417Z,4.32
2023-02-23T20:34:28.244Z,5.45
2023-02-23T20:37:29.953Z,4.95
2023-02-23T20:40:31.435Z,4.07
2023-02-23T20:43:32.961Z,3.60
2023-02-23T20:46:34.582Z,4.78
2023-02-23T20:49:36.745Z,3.80
2023-02-23T20:52:39.618Z,4.18
2023-02-23T20:55:41.150Z,4.28
2023-02-23T20:58:43.558Z,4.65
2023-02-23T21:01:45.204Z,3.88
2023-02-23T21:04:46.800Z,3.88
2023-02-23T21:07:49.742Z,3.78
2023-02-23T21:10:51.246Z,4.82
2023-02-23T21:13:53.048Z,4.93
2023-02-23T21:16:54.730Z,3.80
2023-02-23T21:19:56.543Z,3.90
2023-02-23T21:22:58.089Z,5.45
2023-02-23T21:26:06.991Z,5.72
2023-02-23T21:29:14.659Z,4.65
2023-02-23T21:32:16.762Z,4.68
2023-02-23T21:35:19.470Z,5.18
2023-02-23T21:38:20.981Z,4.50
2023-02-23T21:41:22.871Z,5.28
2023-02-23T21:44:24.731Z,4.15
2023-02-23T21:47:26.279Z,3.92
2023-02-23T21:50:27.823Z,3.70
2023-02-23T21:53:29.997Z,3.83
2023-02-23T21:56:32.698Z,5.63
2023-02-23T21:59:34.757Z,5.95
2023-02-23T22:02:38.268Z,3.35
2023-02-23T22:05:40.220Z,4.18
2023-02-23T22:08:47.226Z,3.92
2023-02-23T22:11:48.805Z,5.68
2023-02-23T22:14:50.399Z,4.20
2023-02-23T22:17:51.867Z,4.45
2023-02-23T22:21:00.705Z,4.93
2023-02-23T22:24:05.284Z,3.20
2023-02-23T22:27:07.687Z,4.95
2023-02-23T22:30:12.113Z,7.80
2023-02-23T22:33:13.808Z,4.45
2023-02-23T22:36:18.465Z,5.97
2023-02-23T22:39:20.155Z,4.65
2023-02-23T22:42:24.311Z,4.50
2023-02-23T22:45:26.006Z,5.93
2023-02-23T22:48:28.730Z,3.70
2023-02-23T22:51:30.707Z,4.20
2023-02-23T22:54:35.227Z,4.47
2023-02-23T22:57:36.913Z,3.97
2023-02-23T23:00:38.380Z,3.60
2023-02-23T23:03:45.580Z,3.97
2023-02-23T23:06:47.634Z,5.57
2023-02-23T23:09:49.402Z,5.43
2023-02-23T23:12:51.447Z,3.88
2023-02-23T23:15:55.227Z,3.85
2023-02-23T23:19:04.916Z,4.10
2023-02-23T23:22:13.151Z,3.55
2023-02-23T23:25:14.865Z,4.75
2023-02-23T23:28:16.541Z,3.83
2023-02-23T23:31:22.633Z,4.07
2023-02-23T23:34:25.200Z,4.78
2023-02-23T23:37:29.230Z,3.75
2023-02-23T23:40:35.590Z,3.40
2023-02-23T23:43:37.598Z,5.75
2023-02-23T23:46:42.737Z,3.42
2023-02-23T23:49:44.367Z,4.38
2023-02-23T23:52:45.904Z,3.80
2023-02-23T23:55:47.353Z,5.00
2023-02-23T23:58:50.242Z,4.03
